Pagina principale
METAR-TAF:

METAR-TAF

Aeroporti :

Prato Nevoso, Italia

Monte Malanotte

latitudine: 44-15N, longitudine: 007-48E, altezza: 1741 m

Osservazione

Il bollettino è stato emesso 7 ore e 18 minuti fa, alle 17:55 UTC
Vento 8 kt da est/sud-est
Temperature 5°C
Umidità 81%
Pressione 1003 hPa
Visibilità: 4000 m
foschia

METAR: LIMY 161755Z 12008KT 4000 BR NSC 05/02 Q1003 RMK SKC VAL FOSCHIA SKC SUP VIS MIN 4000

Ora: 02:13 (01:13 UTC)


TAF: mancante

Osservazioni e previsioni meteorologiche di più di 4000 aeroporti (messaggi METAR e TAF).

Le stazioni disponibili sono rappresentate dai dischi gialli e rossi sulla carta.

Puntare il mouse per vedere il nome della stazione.

Clicca sopra per visualizzare le osservazioni e previsioni meteorologiche.

Per cambiare la mappa : fare clic sui pulsanti verdi con una croce nera per ingrandire, il pulsante verde con un trattino per diminuire, o sulla freccia verde per le mappe adiacenti.


METAR-TAF: